Time;durP1;ratioP1;P1;durP2;ratioP2;P2;SDS_P1;SDS_P2;PMS_P1;PMS_P2;Temp;Humidity;BMP_temperature;BMP_pressure;BME280_temperature;BME280_humidity;BME280_pressure;Samples;Min_cycle;Max_cycle;Signal;HPM_P1;HPM_P2
2021/11/10 00:02:10;;;;;;;50.73;34.38;;;;;;;8.02;77.71;102567.22;1672178;84;21767;-75
2021/11/10 00:04:32;;;;;;;46.80;34.05;;;;;;;8.01;77.75;102568.02;1668912;85;21660;-75
2021/11/10 00:06:59;;;;;;;53.63;37.20;;;;;;;8.01;77.75;102568.02;1700010;84;21073;-75
2021/11/10 00:09:26;;;;;;;51.68;35.63;;;;;;;8.01;77.78;102568.02;1699959;84;21563;-75
2021/11/10 00:11:57;;;;;;;48.10;34.38;;;;;;;8.02;77.78;102560.66;1699987;84;21122;-75
2021/11/10 00:14:22;;;;;;;57.35;38.38;;;;;;;8.00;77.74;102559.66;1699171;84;21798;-75
2021/11/10 00:16:52;;;;;;;48.23;33.78;;;;;;;7.97;77.75;102565.18;1699807;84;21251;-75
2021/11/10 00:19:19;;;;;;;54.42;36.08;;;;;;;7.93;77.70;102564.48;1699065;84;21114;-75
2021/11/10 00:21:45;;;;;;;52.03;35.78;;;;;;;7.90;77.73;102561.69;1699738;84;21101;-75
2021/11/10 00:24:14;;;;;;;51.20;36.77;;;;;;;7.86;77.74;102555.71;1699677;84;21622;-75
2021/11/10 00:26:42;;;;;;;61.20;39.10;;;;;;;7.81;77.77;102545.36;1673412;84;21206;-75
2021/11/10 00:29:09;;;;;;;55.08;35.80;;;;;;;7.76;77.79;102539.80;1699931;84;21334;-76
2021/11/10 00:31:36;;;;;;;55.67;37.23;;;;;;;7.71;77.78;102533.75;1699893;84;21191;-75
2021/11/10 00:34:03;;;;;;;54.10;35.33;;;;;;;7.67;77.87;102547.47;1699841;83;21069;-76
2021/11/10 00:36:29;;;;;;;53.50;36.53;;;;;;;7.62;77.90;102542.31;1674019;84;21073;-76
2021/11/10 00:38:57;;;;;;;54.40;37.20;;;;;;;7.56;77.90;102535.89;1699951;84;21765;-77
2021/11/10 00:41:27;;;;;;;60.65;40.98;;;;;;;7.51;78.00;102534.67;1699769;84;21556;-77
2021/11/10 00:43:59;;;;;;;58.20;38.28;;;;;;;7.48;78.08;102537.48;1699914;84;21089;-76
2021/11/10 00:46:22;;;;;;;56.58;36.38;;;;;;;7.44;78.14;102532.86;1699716;84;20995;-76
2021/11/10 00:48:49;;;;;;;57.05;36.50;;;;;;;7.40;78.19;102536.98;1699922;83;21129;-76
2021/11/10 00:51:19;;;;;;;54.45;36.25;;;;;;;7.36;78.25;102528.42;1700069;84;21756;-76
2021/11/10 00:53:50;;;;;;;54.80;34.83;;;;;;;7.34;78.29;102528.73;1673742;84;21156;-76
2021/11/10 00:56:15;;;;;;;57.50;35.43;;;;;;;7.31;78.38;102530.72;1699313;84;21070;-76
2021/11/10 00:58:45;;;;;;;54.35;36.17;;;;;;;7.26;78.42;102525.56;1699582;83;21070;-76
2021/11/10 01:01:15;;;;;;;60.03;38.90;;;;;;;7.26;78.52;102525.56;1699897;84;21101;-76
2021/11/10 01:03:42;;;;;;;54.08;36.60;;;;;;;7.24;78.61;102520.63;1699693;83;21935;-76
2021/11/10 01:06:11;;;;;;;60.45;36.90;;;;;;;7.22;78.64;102518.72;1699890;84;21015;-77
2021/11/10 01:08:38;;;;;;;51.98;34.48;;;;;;;7.22;78.75;102522.66;1700090;84;21053;-76
2021/11/10 01:11:04;;;;;;;52.60;35.30;;;;;;;7.22;78.83;102519.62;1700029;83;21073;-76
2021/11/10 01:13:33;;;;;;;50.25;34.55;;;;;;;7.23;78.89;102516.62;1673773;84;21598;-76
2021/11/10 01:15:59;;;;;;;54.95;35.85;;;;;;;7.24;78.90;102518.01;1700004;84;21750;-76
2021/11/10 01:18:26;;;;;;;54.10;33.92;;;;;;;7.23;78.94;102515.31;1699947;84;21081;-76
2021/11/10 01:20:57;;;;;;;53.85;35.50;;;;;;;7.23;78.98;102513.59;1699882;84;21061;-76
2021/11/10 01:23:22;;;;;;;52.23;35.10;;;;;;;7.24;79.05;102514.08;1699592;84;21054;-76
2021/11/10 01:25:48;;;;;;;59.15;38.53;;;;;;;7.18;79.05;102504.10;1699982;83;21113;-76
2021/11/10 01:28:18;;;;;;;57.62;37.93;;;;;;;7.27;79.11;102517.33;1700009;84;21799;-76
2021/11/10 01:30:47;;;;;;;60.65;38.90;;;;;;;7.29;79.13;102517.03;1699758;84;21608;-76
2021/11/10 01:33:15;;;;;;;60.05;38.17;;;;;;;7.28;79.09;102518.75;1699521;83;22302;-76
2021/11/10 01:35:45;;;;;;;66.33;35.95;;;;;;;7.29;79.14;102523.58;1699874;83;21050;-76
2021/11/10 01:38:12;;;;;;;54.80;35.40;;;;;;;7.29;79.13;102518.34;1673172;84;21081;-76
2021/11/10 01:40:39;;;;;;;51.85;33.20;;;;;;;7.29;79.14;102525.78;1699859;83;21824;-76
2021/11/10 01:43:17;;;;;;;46.35;31.37;;;;;;;7.27;79.11;102529.12;1699920;84;21066;-76
2021/11/10 01:45:46;;;;;;;47.50;31.62;;;;;;;7.27;79.15;102531.73;1699690;84;21640;-77
2021/11/10 01:48:16;;;;;;;48.60;32.10;;;;;;;7.24;79.05;102531.52;1699939;83;21378;-76
2021/11/10 01:50:43;;;;;;;49.77;32.48;;;;;;;7.17;79.04;102530.18;1674656;84;21085;-76
2021/11/10 01:53:12;;;;;;;51.13;32.38;;;;;;;7.13;79.04;102539.95;1673901;84;21154;-76
2021/11/10 01:55:43;;;;;;;46.77;30.52;;;;;;;7.08;79.03;102544.00;1699901;83;21113;-76
2021/11/10 01:58:08;;;;;;;53.17;33.28;;;;;;;7.01;79.00;102546.17;1699417;83;21096;-76
2021/11/10 02:00:38;;;;;;;47.53;32.13;;;;;;;6.91;78.97;102542.84;1699812;84;21148;-76
2021/11/10 02:03:08;;;;;;;46.90;30.45;;;;;;;6.88;79.12;102542.63;1698234;83;21037;-76
2021/11/10 02:05:35;;;;;;;50.12;31.95;;;;;;;6.81;79.06;102538.66;1696949;84;21833;-76
2021/11/10 02:08:05;;;;;;;51.90;33.70;;;;;;;6.71;79.19;102537.12;1697259;84;21077;-76
2021/11/10 02:10:31;;;;;;;51.83;33.33;;;;;;;6.66;79.25;102541.12;1696831;84;20999;-76
2021/11/10 02:13:03;;;;;;;55.35;33.73;;;;;;;6.59;79.30;102541.11;1674759;84;21552;-79
2021/11/10 02:15:33;;;;;;;56.70;35.03;;;;;;;6.54;79.39;102538.97;1697458;84;21504;-77
2021/11/10 02:18:01;;;;;;;56.53;34.53;;;;;;;6.48;79.47;102534.22;1696810;84;21195;-77
2021/11/10 02:20:35;;;;;;;57.00;34.48;;;;;;;6.32;79.50;102511.70;1696995;84;21066;-77
2021/11/10 02:23:04;;;;;;;53.08;33.45;;;;;;;6.37;79.68;102533.45;1674903;84;21351;-77
2021/11/10 02:25:33;;;;;;;56.00;34.13;;;;;;;6.36;79.88;102525.50;1696803;84;21710;-77
2021/11/10 02:28:00;;;;;;;56.35;36.00;;;;;;;6.37;80.11;102520.38;1697108;84;21070;-77
2021/11/10 02:30:28;;;;;;;52.13;33.60;;;;;;;6.41;80.25;102523.71;1674656;84;21382;-77
2021/11/10 02:33:00;;;;;;;54.23;32.67;;;;;;;6.45;80.35;102517.40;1697275;84;21073;-77
2021/11/10 02:35:28;;;;;;;49.58;32.23;;;;;;;6.47;80.35;102520.62;1697242;84;21568;-77
2021/11/10 02:38:01;;;;;;;50.12;31.97;;;;;;;6.48;80.38;102515.02;1697207;84;21081;-77
2021/11/10 02:40:30;;;;;;;54.53;31.80;;;;;;;6.48;80.31;102509.37;1674731;84;21100;-77
2021/11/10 02:43:00;;;;;;;47.30;31.80;;;;;;;6.40;80.15;102504.91;1697035;84;21762;-77
2021/11/10 02:45:27;;;;;;;51.30;31.40;;;;;;;6.33;80.18;102511.81;1696996;84;21074;-77
2021/11/10 02:47:53;;;;;;;54.75;33.50;;;;;;;6.28;80.19;102510.57;1697199;84;21635;-76
2021/11/10 02:50:20;;;;;;;50.45;31.75;;;;;;;6.23;80.20;102519.80;1675206;84;21074;-77
2021/11/10 02:52:47;;;;;;;51.35;32.20;;;;;;;6.17;80.24;102516.75;1696950;84;21093;-77
2021/11/10 02:55:13;;;;;;;49.75;32.00;;;;;;;6.12;80.29;102517.74;1697053;84;21859;-76
2021/11/10 02:57:40;;;;;;;51.73;32.80;;;;;;;6.07;80.36;102521.73;1697059;84;21159;-76
2021/11/10 03:00:11;;;;;;;48.92;32.08;;;;;;;5.97;80.36;102513.63;1697137;84;21105;-76
2021/11/10 03:02:37;;;;;;;48.63;30.75;;;;;;;5.95;80.39;102517.84;1696832;83;21117;-76
2021/11/10 03:05:06;;;;;;;55.52;33.02;;;;;;;5.90;80.45;102516.56;1696676;84;21105;-76
2021/11/10 03:07:32;;;;;;;51.68;32.30;;;;;;;5.85;80.54;102520.12;1697083;84;21694;-76
2021/11/10 03:09:59;;;;;;;55.08;32.83;;;;;;;5.84;80.63;102518.73;1696923;84;21081;-76
2021/11/10 03:12:26;;;;;;;52.27;31.82;;;;;;;5.80;80.68;102521.52;1696928;84;21706;-76
2021/11/10 03:14:53;;;;;;;54.98;32.48;;;;;;;5.75;80.63;102522.89;1696944;84;21210;-76
2021/11/10 03:17:20;;;;;;;48.63;31.02;;;;;;;5.70;80.71;102525.96;1697059;84;21603;-76
2021/11/10 03:19:46;;;;;;;54.15;32.28;;;;;;;5.67;80.80;102525.35;1697131;84;21797;-76
2021/11/10 03:22:14;;;;;;;50.00;32.33;;;;;;;5.64;80.83;102522.50;1697219;84;21194;-76
2021/11/10 03:24:40;;;;;;;49.25;31.27;;;;;;;5.60;80.89;102525.69;1697251;84;21665;-76
2021/11/10 03:27:10;;;;;;;49.20;31.52;;;;;;;5.56;80.91;102527.16;1697323;84;21213;-76
2021/11/10 03:29:36;;;;;;;52.48;32.35;;;;;;;5.52;80.93;102525.13;1697115;84;21094;-76
2021/11/10 03:32:04;;;;;;;52.58;32.28;;;;;;;5.47;80.86;102528.19;1697339;84;21756;-76
2021/11/10 03:34:31;;;;;;;51.00;32.50;;;;;;;5.40;80.97;102531.63;1697228;84;21066;-76
2021/11/10 03:36:58;;;;;;;53.28;32.73;;;;;;;5.38;81.11;102524.08;1697480;84;21022;-77
2021/11/10 03:39:25;;;;;;;53.13;31.65;;;;;;;5.36;81.11;102520.86;1697602;84;21077;-77
2021/11/10 03:41:51;;;;;;;46.68;31.50;;;;;;;5.34;81.17;102523.75;1697732;84;21654;-77
2021/11/10 03:44:18;;;;;;;56.53;32.48;;;;;;;5.29;81.14;102523.39;1697605;84;21736;-77
2021/11/10 03:46:45;;;;;;;50.75;32.13;;;;;;;5.25;81.22;102522.28;1697379;84;21062;-77
2021/11/10 03:49:13;;;;;;;54.10;31.00;;;;;;;5.22;81.25;102516.83;1697514;84;21125;-77
2021/11/10 03:51:45;;;;;;;51.20;32.83;;;;;;;5.19;81.22;102520.50;1697188;84;21074;-77
2021/11/10 03:54:11;;;;;;;53.00;32.55;;;;;;;5.15;81.30;102524.08;1697389;84;21155;-77
2021/11/10 03:56:41;;;;;;;51.63;33.13;;;;;;;5.11;81.39;102516.41;1696988;84;21751;-77
2021/11/10 03:59:11;;;;;;;52.20;32.38;;;;;;;5.09;81.39;102517.06;1696964;84;20995;-77
2021/11/10 04:01:38;;;;;;;54.75;35.28;;;;;;;5.05;81.47;102514.25;1674963;84;21824;-77
2021/11/10 04:04:06;;;;;;;57.00;33.92;;;;;;;5.02;81.52;102511.80;1698821;83;21057;-77
2021/11/10 04:06:35;;;;;;;53.55;33.50;;;;;;;5.00;81.58;102510.38;1699724;84;21532;-76
2021/11/10 04:09:07;;;;;;;57.40;35.60;;;;;;;4.97;81.60;102513.14;1699939;83;21743;-76
2021/11/10 04:11:32;;;;;;;54.08;33.50;;;;;;;4.95;81.57;102509.11;1699366;84;21532;-77
2021/11/10 04:13:59;;;;;;;58.48;34.35;;;;;;;4.93;81.62;102511.09;1700082;84;21504;-77
2021/11/10 04:16:25;;;;;;;52.43;31.62;;;;;;;4.90;81.66;102503.96;1700104;83;21077;-77
2021/11/10 04:18:54;;;;;;;51.90;32.78;;;;;;;4.88;81.66;102514.68;1700033;83;21077;-77
2021/11/10 04:21:20;;;;;;;51.33;31.50;;;;;;;4.85;81.69;102516.64;1699875;84;23128;-77
2021/11/10 04:23:50;;;;;;;51.53;32.55;;;;;;;4.81;81.72;102512.39;1699846;83;21076;-77
2021/11/10 04:26:18;;;;;;;46.75;31.35;;;;;;;4.77;81.73;102511.24;1700205;84;21077;-77
2021/11/10 04:28:45;;;;;;;48.85;30.72;;;;;;;4.74;81.81;102516.20;1700198;83;21583;-77
2021/11/10 04:31:12;;;;;;;46.75;30.72;;;;;;;4.71;81.79;102504.26;1700374;84;21132;-78
2021/11/10 04:33:42;;;;;;;52.58;32.35;;;;;;;4.68;81.83;102510.53;1700020;84;21788;-78
2021/11/10 04:36:07;;;;;;;51.37;31.90;;;;;;;4.64;81.89;102505.88;1699707;84;21523;-78
2021/11/10 04:38:37;;;;;;;50.80;31.55;;;;;;;4.63;81.96;102500.13;1700207;84;21457;-78
2021/11/10 04:41:06;;;;;;;48.50;30.65;;;;;;;4.61;81.93;102500.41;1699276;84;21089;-78
2021/11/10 04:43:34;;;;;;;53.78;33.85;;;;;;;4.58;82.00;102503.70;1699620;84;21085;-77
2021/11/10 04:47:00;;;;;;;51.13;32.60;;;;;;;4.57;82.06;102490.53;1699486;84;21734;-77
2021/11/10 04:48:38;;;;;;;54.90;34.30;;;;;;;4.55;82.09;102485.60;1683695;84;21612;-76
2021/11/10 04:51:11;;;;;;;54.70;34.13;;;;;;;4.53;82.09;102492.41;1699844;84;21629;-79
2021/11/10 04:53:42;;;;;;;53.08;33.65;;;;;;;4.50;82.16;102481.72;1653409;85;21102;-79
2021/11/10 04:56:08;;;;;;;50.70;33.15;;;;;;;4.47;82.17;102492.43;1668773;84;21106;-80
2021/11/10 04:58:36;;;;;;;53.20;34.33;;;;;;;4.45;82.18;102485.29;1668987;85;22449;-79
2021/11/10 05:01:03;;;;;;;48.08;32.13;;;;;;;4.41;82.23;102489.36;1669159;85;21203;-78
2021/11/10 05:03:33;;;;;;;55.25;32.70;;;;;;;4.40;82.31;102490.53;1668876;85;21098;-78
2021/11/10 05:06:03;;;;;;;53.87;32.67;;;;;;;4.37;82.32;102482.46;1668458;85;21083;-78
2021/11/10 05:08:29;;;;;;;49.05;30.15;;;;;;;4.36;82.47;102478.95;1669008;85;21142;-77
2021/11/10 05:10:55;;;;;;;57.00;33.18;;;;;;;4.36;82.53;102472.44;1669122;85;22560;-74
2021/11/10 05:13:26;;;;;;;49.45;31.17;;;;;;;4.36;82.57;102475.05;1668954;85;21067;-76
2021/11/10 05:15:52;;;;;;;48.83;30.60;;;;;;;4.35;82.59;102471.01;1669063;85;21087;-74
2021/11/10 05:18:18;;;;;;;50.35;32.03;;;;;;;4.35;82.61;102472.31;1669056;85;21073;-76
2021/11/10 05:20:48;;;;;;;51.73;30.88;;;;;;;4.34;82.69;102472.72;1669030;85;21129;-75
2021/11/10 05:23:16;;;;;;;51.33;31.35;;;;;;;4.33;82.74;102473.48;1669385;85;21962;-75
2021/11/10 05:25:43;;;;;;;51.80;32.48;;;;;;;4.32;82.70;102474.30;1668893;85;21247;-80
2021/11/10 05:28:12;;;;;;;51.37;31.62;;;;;;;4.28;82.65;102469.64;1669337;85;21094;-77
2021/11/10 05:30:38;;;;;;;51.37;32.98;;;;;;;4.25;82.70;102477.20;1669000;85;21078;-80
2021/11/10 05:33:05;;;;;;;52.17;31.57;;;;;;;4.22;82.77;102476.59;1651968;85;21111;-82
2021/11/10 05:35:34;;;;;;;50.30;30.85;;;;;;;4.24;82.86;102480.59;1648497;85;21549;-81
2021/11/10 05:38:08;;;;;;;50.55;31.60;;;;;;;4.23;82.87;102473.17;1651313;85;21549;-80
2021/11/10 05:40:36;;;;;;;53.00;34.05;;;;;;;4.23;82.92;102480.99;1669038;85;21381;-75
2021/11/10 05:43:05;;;;;;;55.20;32.25;;;;;;;4.23;83.01;102476.19;1668638;85;21059;-75
2021/11/10 05:45:33;;;;;;;52.90;33.55;;;;;;;4.22;83.06;102472.67;1669170;85;21171;-82
2021/11/10 05:48:04;;;;;;;57.93;33.63;;;;;;;4.22;83.12;102475.66;1668914;85;21742;-82
2021/11/10 05:50:31;;;;;;;51.88;33.23;;;;;;;4.22;83.16;102471.75;1668651;85;21149;-79
2021/11/10 05:52:58;;;;;;;47.48;31.40;;;;;;;4.24;83.29;102476.68;1668785;85;22259;-78
2021/11/10 05:55:25;;;;;;;48.75;30.88;;;;;;;4.23;83.29;102468.36;1668817;85;21023;-76
2021/11/10 05:57:54;;;;;;;50.88;33.02;;;;;;;4.23;83.22;102469.67;1668471;85;21074;-76
2021/11/10 06:00:22;;;;;;;55.73;32.35;;;;;;;4.22;83.27;102463.92;1668296;85;21063;-77
2021/11/10 06:02:51;;;;;;;54.30;32.35;;;;;;;4.21;83.24;102459.52;1668574;85;21090;-76
2021/11/10 06:05:31;;;;;;;51.90;33.15;;;;;;;4.20;83.33;102457.69;1685581;84;21098;-76
2021/11/10 06:07:51;;;;;;;52.30;32.48;;;;;;;4.19;83.32;102455.89;1663867;85;21146;-76
2021/11/10 06:10:18;;;;;;;52.33;34.20;;;;;;;4.18;83.31;102458.86;1669324;85;21105;-76
2021/11/10 06:12:50;;;;;;;59.23;33.20;;;;;;;4.18;83.31;102463.17;1669918;85;21726;-76
2021/11/10 06:15:17;;;;;;;52.00;31.40;;;;;;;4.19;83.41;102462.41;1670044;85;21098;-76
2021/11/10 06:17:44;;;;;;;51.40;33.58;;;;;;;4.18;83.40;102464.08;1670435;85;21635;-76
2021/11/10 06:20:15;;;;;;;52.55;32.95;;;;;;;4.18;83.48;102454.95;1643331;85;21032;-76
2021/11/10 06:22:39;;;;;;;53.23;32.63;;;;;;;4.22;83.63;102448.28;1669375;85;21086;-76
2021/11/10 06:25:09;;;;;;;45.48;31.48;;;;;;;4.23;83.57;102449.71;1670639;85;22010;-76
2021/11/10 06:27:37;;;;;;;52.58;33.85;;;;;;;4.25;83.62;102450.73;1670362;85;21085;-76
2021/11/10 06:30:05;;;;;;;53.50;32.75;;;;;;;4.29;83.57;102453.19;1670563;85;21078;-75
2021/11/10 06:32:31;;;;;;;53.28;33.05;;;;;;;4.31;83.70;102445.09;1670448;85;21157;-76
2021/11/10 06:34:58;;;;;;;47.70;32.95;;;;;;;4.34;83.64;102441.84;1670438;85;21117;-76
2021/11/10 06:37:25;;;;;;;51.90;32.20;;;;;;;4.34;83.64;102434.91;1670227;85;21939;-76
2021/11/10 06:39:52;;;;;;;53.50;32.33;;;;;;;4.37;83.65;102434.23;1670237;85;21137;-76
2021/11/10 06:42:19;;;;;;;51.63;32.20;;;;;;;4.40;83.68;102441.89;1670450;85;21692;-76
2021/11/10 06:44:45;;;;;;;49.40;32.23;;;;;;;4.43;83.71;102438.23;1670326;85;21121;-75
2021/11/10 06:47:12;;;;;;;52.27;34.15;;;;;;;4.48;83.74;102441.17;1670161;85;21556;-76
2021/11/10 06:49:41;;;;;;;52.60;33.00;;;;;;;4.54;83.83;102438.12;1670028;85;22806;-76
2021/11/10 06:52:09;;;;;;;53.68;34.30;;;;;;;4.58;83.79;102437.20;1670233;85;21102;-76
2021/11/10 06:54:35;;;;;;;53.38;34.53;;;;;;;4.62;83.79;102430.11;1670248;85;21154;-76
2021/11/10 06:57:02;;;;;;;54.03;33.53;;;;;;;4.66;83.76;102429.95;1670346;85;21090;-76
2021/11/10 06:59:30;;;;;;;53.48;34.48;;;;;;;4.71;83.78;102433.83;1670320;85;21063;-76
2021/11/10 07:02:01;;;;;;;54.85;34.90;;;;;;;4.75;83.77;102424.13;1670302;85;21797;-75
2021/11/10 07:04:28;;;;;;;53.15;35.17;;;;;;;4.79;83.79;102420.05;1670596;85;21062;-75
2021/11/10 07:07:02;;;;;;;62.00;36.25;;;;;;;4.87;83.81;102429.34;1670318;85;21624;-74
2021/11/10 07:09:28;;;;;;;54.83;34.70;;;;;;;4.93;83.76;102426.29;1642832;86;21149;-74
2021/11/10 07:11:54;;;;;;;57.17;35.17;;;;;;;4.96;83.67;102426.13;1654660;86;21123;-74
2021/11/10 07:14:21;;;;;;;57.80;36.50;;;;;;;5.01;83.70;102423.84;1639868;87;21911;-75
2021/11/10 07:16:48;;;;;;;59.18;36.50;;;;;;;5.06;83.64;102413.36;1665250;86;21623;-76
2021/11/10 07:19:15;;;;;;;55.05;35.03;;;;;;;5.11;83.58;102412.00;1654688;86;21115;-76
2021/11/10 07:21:42;;;;;;;54.45;34.50;;;;;;;5.15;83.52;102416.65;1639786;87;21097;-76
2021/11/10 07:24:08;;;;;;;53.95;34.80;;;;;;;5.20;83.46;102420.89;1665581;86;21429;-75
2021/11/10 07:26:35;;;;;;;50.80;33.55;;;;;;;5.23;83.38;102418.52;1655346;86;21849;-76
2021/11/10 07:29:02;;;;;;;59.13;36.68;;;;;;;5.28;83.41;102414.55;1663418;86;21008;-75
2021/11/10 07:31:28;;;;;;;54.48;34.13;;;;;;;5.32;83.28;102410.05;1664267;86;21066;-76
2021/11/10 07:33:55;;;;;;;51.35;31.97;;;;;;;5.35;83.24;102409.35;1664284;86;21702;-76
2021/11/10 07:36:22;;;;;;;53.20;35.48;;;;;;;5.41;83.26;102416.35;1664430;86;21086;-76
2021/11/10 07:38:49;;;;;;;58.78;35.75;;;;;;;5.50;83.32;102413.48;1663764;86;21793;-76
2021/11/10 07:41:18;;;;;;;59.65;37.63;;;;;;;5.60;83.36;102414.67;1663006;86;21071;-75
2021/11/10 07:43:48;;;;;;;58.13;37.08;;;;;;;5.76;83.39;102408.81;1643624;86;21089;-75
2021/11/10 07:46:16;;;;;;;52.20;35.03;;;;;;;5.91;83.41;102408.63;1644504;86;21020;-74
2021/11/10 07:48:46;;;;;;;56.68;36.42;;;;;;;6.05;83.18;102407.41;1646468;86;21892;-75
2021/11/10 07:51:16;;;;;;;55.70;36.93;;;;;;;6.15;83.01;102411.16;1646818;86;21734;-75
2021/11/10 07:53:42;;;;;;;56.63;35.90;;;;;;;6.25;82.88;102411.01;1655949;85;21095;-75
2021/11/10 07:56:12;;;;;;;52.48;35.95;;;;;;;6.37;82.78;102404.40;1671644;85;21101;-75
2021/11/10 07:58:38;;;;;;;58.40;36.35;;;;;;;6.41;82.41;102413.85;1670007;85;21090;-75
2021/11/10 08:01:06;;;;;;;53.30;37.35;;;;;;;6.42;82.18;102410.86;1628779;87;21038;-75
2021/11/10 08:03:33;;;;;;;58.42;37.48;;;;;;;6.45;82.21;102408.43;1657471;86;21735;-74
2021/11/10 08:06:00;;;;;;;52.67;36.35;;;;;;;6.53;82.22;102405.95;1666718;85;21714;-75
2021/11/10 08:08:27;;;;;;;56.55;36.23;;;;;;;6.63;82.18;102400.04;1666680;86;21102;-75
2021/11/10 08:11:00;;;;;;;56.13;37.00;;;;;;;6.66;81.93;102401.53;1639383;86;21097;-75
2021/11/10 08:13:27;;;;;;;53.78;37.17;;;;;;;6.64;81.75;102397.91;1635031;86;21074;-75
2021/11/10 08:15:56;;;;;;;57.65;35.83;;;;;;;6.68;81.73;102415.25;1634914;86;21793;-75
2021/11/10 08:18:23;;;;;;;56.98;36.95;;;;;;;6.77;81.85;102413.22;1635314;86;21047;-75
2021/11/10 08:20:50;;;;;;;51.95;35.33;;;;;;;6.87;81.73;102413.45;1635229;86;21674;-75
2021/11/10 08:23:26;;;;;;;52.08;36.35;;;;;;;6.96;81.53;102413.14;1667437;85;21128;-75
2021/11/10 08:25:51;;;;;;;53.70;35.00;;;;;;;7.02;81.46;102400.48;1665577;86;21146;-75
2021/11/10 08:28:18;;;;;;;52.50;34.83;;;;;;;7.10;81.36;102404.50;1667633;85;21732;-75
2021/11/10 08:30:45;;;;;;;49.58;34.65;;;;;;;7.16;81.16;102400.06;1659335;86;21082;-75
2021/11/10 08:33:12;;;;;;;51.42;36.83;;;;;;;7.20;81.00;102410.83;1661151;84;21114;-75
2021/11/10 08:35:38;;;;;;;54.15;35.88;;;;;;;7.27;80.99;102425.24;1693101;84;21035;-75
2021/11/10 08:38:05;;;;;;;52.85;35.43;;;;;;;7.34;80.82;102418.29;1673523;84;21047;-75
2021/11/10 08:40:32;;;;;;;52.03;35.15;;;;;;;7.38;80.65;102411.54;1690929;84;21734;-75
2021/11/10 08:42:59;;;;;;;48.87;34.38;;;;;;;7.47;80.69;102416.45;1668479;85;21101;-75
2021/11/10 08:45:29;;;;;;;54.18;34.60;;;;;;;7.51;80.30;102414.14;1667878;85;21317;-75
2021/11/10 08:47:57;;;;;;;51.83;34.78;;;;;;;7.55;80.26;102416.55;1668032;85;21676;-75
2021/11/10 08:50:26;;;;;;;55.78;36.65;;;;;;;7.62;80.22;102424.00;1668916;85;21066;-75
2021/11/10 08:52:53;;;;;;;53.17;35.92;;;;;;;7.72;80.16;102422.87;1669019;85;22553;-75
2021/11/10 08:55:21;;;;;;;53.92;36.90;;;;;;;7.83;80.17;102417.89;1649265;85;21232;-77
2021/11/10 08:57:49;;;;;;;54.98;37.33;;;;;;;7.90;79.92;102412.23;1668949;85;21130;-75
2021/11/10 09:00:20;;;;;;;55.48;38.50;;;;;;;7.97;79.75;102408.26;1668977;85;21207;-75
2021/11/10 09:02:47;;;;;;;58.42;37.48;;;;;;;8.04;79.70;102409.14;1668693;85;21089;-75
2021/11/10 09:05:14;;;;;;;51.50;35.65;;;;;;;8.15;79.61;102408.50;1678159;84;21745;-75
2021/11/10 09:07:42;;;;;;;56.50;37.90;;;;;;;8.21;79.37;102411.49;1691359;84;21066;-75
2021/11/10 09:10:11;;;;;;;54.35;36.42;;;;;;;8.23;79.10;102403.72;1691395;84;21090;-75
2021/11/10 09:12:38;;;;;;;53.58;36.50;;;;;;;8.33;79.27;102411.33;1691629;84;21080;-75
2021/11/10 09:15:10;;;;;;;50.85;35.52;;;;;;;8.44;79.26;102407.66;1691609;84;21058;-75
2021/11/10 09:17:39;;;;;;;52.58;36.15;;;;;;;8.58;79.07;102404.58;1699996;84;21742;-75
2021/11/10 09:20:11;;;;;;;53.00;35.85;;;;;;;8.72;78.92;102404.07;1705606;83;21096;-75
2021/11/10 09:22:38;;;;;;;53.75;36.73;;;;;;;8.80;78.47;102397.53;1692017;84;21098;-75
2021/11/10 09:25:08;;;;;;;60.25;38.73;;;;;;;8.84;78.25;102385.11;1700408;84;21077;-75
2021/11/10 09:27:36;;;;;;;59.00;40.17;;;;;;;8.84;78.01;102379.86;1698779;84;21117;-75
2021/11/10 09:30:09;;;;;;;53.33;36.45;;;;;;;8.81;77.67;102381.40;1700236;84;21697;-75
2021/11/10 09:32:36;;;;;;;57.67;40.10;;;;;;;8.78;77.62;102383.83;1700647;84;21085;-75
2021/11/10 09:35:06;;;;;;;54.88;38.10;;;;;;;8.74;77.43;102385.38;1700196;84;21412;-75
2021/11/10 09:37:33;;;;;;;56.68;38.42;;;;;;;8.73;77.49;102384.48;1694798;84;22253;-75
2021/11/10 09:40:02;;;;;;;56.48;38.88;;;;;;;8.79;77.53;102384.34;1691246;84;21098;-75
2021/11/10 09:42:29;;;;;;;60.38;40.35;;;;;;;8.82;77.52;102374.00;1694851;84;21772;-75
2021/11/10 09:44:55;;;;;;;56.90;38.88;;;;;;;8.85;77.40;102376.40;1668103;85;21094;-75
2021/11/10 09:47:22;;;;;;;59.33;40.08;;;;;;;8.89;77.33;102366.98;1679251;84;21607;-75
2021/11/10 09:49:49;;;;;;;56.63;36.50;;;;;;;8.89;77.15;102352.13;1671926;84;21417;-75
2021/11/10 09:52:16;;;;;;;56.28;37.00;;;;;;;8.83;76.85;102362.28;1698891;84;21127;-75
2021/11/10 09:54:43;;;;;;;56.53;37.85;;;;;;;8.69;76.48;102350.06;1672141;85;22610;-75
2021/11/10 09:57:10;;;;;;;54.10;37.40;;;;;;;8.57;76.54;102358.13;1698372;84;21142;-75
2021/11/10 09:59:37;;;;;;;61.10;38.17;;;;;;;8.46;76.50;102356.17;1698275;84;21046;-75
2021/11/10 10:02:11;;;;;;;57.98;37.48;;;;;;;8.34;76.46;102358.05;1670744;85;21283;-75
2021/11/10 10:04:32;;;;;;;55.98;35.88;;;;;;;8.15;76.38;102368.74;1699626;84;21536;-75
2021/11/10 10:07:02;;;;;;;49.67;34.88;;;;;;;8.00;76.44;102369.55;1654578;85;21758;-75
2021/11/10 10:09:28;;;;;;;55.73;36.70;;;;;;;7.88;76.47;102375.84;1601256;85;21451;-75
2021/11/10 10:11:55;;;;;;;53.75;36.25;;;;;;;7.76;76.66;102371.12;1670158;85;21074;-75
2021/11/10 10:14:22;;;;;;;51.68;34.67;;;;;;;7.70;76.77;102368.14;1670221;85;21085;-75
2021/11/10 10:16:49;;;;;;;52.62;34.92;;;;;;;7.65;76.99;102366.94;1670203;85;21112;-75
2021/11/10 10:19:15;;;;;;;59.65;38.63;;;;;;;7.67;77.17;102359.66;1670248;85;21697;-75
2021/11/10 10:21:43;;;;;;;59.60;36.75;;;;;;;7.68;77.23;102360.59;1665977;85;21718;-75
2021/11/10 10:24:12;;;;;;;58.87;37.15;;;;;;;7.62;77.10;102349.31;1670190;85;21182;-77
2021/11/10 10:26:39;;;;;;;56.08;36.30;;;;;;;7.64;77.32;102353.31;1669497;85;21114;-75
2021/11/10 10:29:09;;;;;;;58.90;37.48;;;;;;;7.66;77.30;102346.06;1669337;85;21087;-75
2021/11/10 10:31:37;;;;;;;53.13;35.30;;;;;;;7.64;77.27;102341.14;1682541;84;21766;-75
2021/11/10 10:34:10;;;;;;;58.58;35.38;;;;;;;7.58;77.09;102342.04;1670224;85;21058;-75
2021/11/10 10:36:39;;;;;;;55.78;36.28;;;;;;;7.57;77.20;102341.56;1682700;84;21114;-75
2021/11/10 10:39:10;;;;;;;52.13;35.55;;;;;;;7.54;77.22;102333.49;1670471;85;21122;-75
2021/11/10 10:41:45;;;;;;;57.27;36.53;;;;;;;7.56;77.41;102334.11;1682837;85;21165;-75
2021/11/10 10:44:15;;;;;;;52.50;34.80;;;;;;;7.61;77.54;102329.14;1682617;84;21663;-75
2021/11/10 10:46:45;;;;;;;57.98;35.90;;;;;;;7.68;77.57;102324.79;1682587;85;21143;-75
2021/11/10 10:49:30;;;;;;;57.33;35.85;;;;;;;7.73;77.56;102318.13;1682460;85;21071;-76
2021/11/10 10:51:53;;;;;;;51.98;34.48;;;;;;;7.78;77.52;102315.36;1681421;85;21604;-75
2021/11/10 10:54:28;;;;;;;52.43;35.43;;;;;;;7.84;77.51;102309.58;1670095;85;21086;-76
2021/11/10 10:56:57;;;;;;;56.40;38.02;;;;;;;7.88;77.50;102295.88;1682402;85;22234;-75
2021/11/10 10:59:30;;;;;;;52.48;35.88;;;;;;;7.92;77.41;102286.45;1682630;85;21083;-76
2021/11/10 11:01:59;;;;;;;53.48;35.43;;;;;;;7.94;77.41;102283.12;1682681;84;21083;-76
2021/11/10 11:04:29;;;;;;;56.50;39.58;;;;;;;7.98;77.35;102276.36;1682682;85;21059;-76
2021/11/10 11:07:07;;;;;;;70.62;44.60;;;;;;;8.00;77.35;102269.89;1682556;84;21604;-76
2021/11/10 11:09:50;;;;;;;60.67;39.70;;;;;;;8.03;77.33;102283.17;1682645;85;21911;-76
2021/11/10 11:12:34;;;;;;;57.58;38.23;;;;;;;8.04;77.34;102281.06;1669227;85;21039;-76
2021/11/10 11:15:24;;;;;;;61.48;38.55;;;;;;;8.06;77.30;102282.05;1682538;85;21114;-76
2021/11/10 11:17:46;;;;;;;53.45;36.58;;;;;;;8.09;77.34;102276.59;1680772;85;21083;-76
2021/11/10 11:20:30;;;;;;;62.15;38.80;;;;;;;8.14;77.33;102268.98;1682760;85;21063;-76
2021/11/10 11:22:57;;;;;;;;;;;;;;;8.17;77.23;102267.86;1684985;85;22596;-76